Bryan's Hourly Summary for Monday, July 9, 2018
Hour Temp
(f)
RH
(%)
Solar Rad.
(MJ/m2)
Rainfall
(in)
Wind
(mph)
7/9/2018 12:00 AM 76 90 0 0 0.41
7/9/2018 1:00 AM 76 90 0 0 1.83
7/9/2018 2:00 AM 75 91 0 0 3.58
7/9/2018 3:00 AM 75 92 0 0 0.76
7/9/2018 4:00 AM 74 94 0 0 0.01
7/9/2018 5:00 AM 74 95 0 0 0.01
7/9/2018 6:00 AM 74 95 0 0 0
7/9/2018 7:00 AM 74 95 0.03 0 0
7/9/2018 8:00 AM 75 91 0.37 0 0
7/9/2018 9:00 AM 77 86 0.56 0 0.03
7/9/2018 10:00 AM 78 83 0.63 0 0.12
7/9/2018 11:00 AM 80 80 0.69 0 0.04
7/9/2018 12:00 PM 80 70 1.43 0 3.3
7/9/2018 1:00 PM 75 78 0.69 0.13 5.74
7/9/2018 2:00 PM 74 92 0.62 0.02 0.88
7/9/2018 3:00 PM 75 89 0.96 0 0.81
7/9/2018 4:00 PM 75 89 0.54 0.03 0.43
7/9/2018 5:00 PM 75 90 0.57 0 1.33
7/9/2018 6:00 PM 76 90 0.47 0 1.41
7/9/2018 7:00 PM 77 86 0.55 0 0.22
7/9/2018 8:00 PM 77 85 0.31 0 0.14
7/9/2018 9:00 PM 76 87 0.04 0 0
7/9/2018 10:00 PM 75 91 0 0 0
7/9/2018 11:00 PM 74 94 0 0 0.08
Data Summary 75 88 8.46 0.18 0.88